Latest Weather Observations for Tewantin

IDQ60801

Issued at 10:13 am EST Wednesday 25 May 2022 (issued every 10 minutes, with the page automatically refreshed every 10 minutes)

About weather observations | Map of weather stations | Latest weather observations for QLD | Other Formats
Station Details ID: 040908 Name: TEWANTIN RSL PARK Lat: -26.39 Lon: 153.04 Height: 6.4 m
Data from the previous 72 hours. | See also: Recent months at Tewantin
Date/Time
EST
Temp
°C
App
Temp
°C
Dew
Point
°C
Rel
Hum
%
Delta-T
°C
Wind Press
QNH
hPa
Press
MSL
hPa
Rain since
9am
mm
Dir  Spd
km/h
Gust
km/h
Spd
kts
Gust
kts
25/10:00am 19.7 19.6 17.8 89 1.2 S 15 22 8 12 1020.3 1020.3 0.0
25/09:30am 19.1 18.6 17.8 92 0.8 S 17 22 9 12 1020.5 1020.5 0.0
25/09:00am 18.1 18.1 17.3 95 0.5 S 13 20 7 11 1020.5 1020.5 25.8
25/08:30am 17.6 17.8 16.8 95 0.5 S 11 17 6 9 1020.7 1020.7 25.8
25/08:00am 17.3 18.2 16.5 95 0.5 SE 7 17 4 9 1020.5 1020.5 24.2
25/07:30am 17.4 17.4 16.3 93 0.7 S 11 17 6 9 1020.1 1020.1 21.4
25/07:00am 17.2 16.8 16.2 94 0.6 S 13 22 7 12 1019.9 1019.9 21.4
25/06:30am 17.0 16.6 16.2 95 0.5 S 13 17 7 9 1019.7 1019.7 21.4
25/06:00am 17.0 17.0 16.2 95 0.5 S 11 17 6 9 1019.3 1019.3 21.4
25/05:30am 17.0 16.2 16.0 94 0.6 S 15 20 8 11 1019.0 1019.0 21.4
25/05:00am 16.8 16.7 16.0 95 0.5 S 11 19 6 10 1018.9 1018.9 21.2
25/04:30am 17.0 16.2 16.2 95 0.5 S 15 24 8 13 1018.5 1018.5 17.6
25/04:00am 16.9 16.5 16.3 96 0.4 S 13 20 7 11 1018.6 1018.6 17.6
25/03:30am 17.0 16.7 16.4 96 0.4 S 13 19 7 10 1018.7 1018.7 17.4
25/03:00am 17.1 17.4 16.1 94 0.6 SE 9 13 5 7 1019.2 1019.2 8.0
25/02:30am 17.1 17.5 16.3 95 0.5 S 9 13 5 7 1019.0 1019.0 6.8
25/02:00am 17.2 17.6 16.2 94 0.6 SSW 9 13 5 7 1019.3 1019.3 6.8
25/01:30am 17.2 17.5 16.1 93 0.7 ENE 9 17 5 9 1019.8 1019.8 6.8
25/01:00am 17.5 17.5 16.2 92 0.8 S 11 19 6 10 1019.8 1019.8 4.6
25/12:30am 17.5 17.9 16.4 93 0.7 S 9 17 5 9 1019.9 1019.9 4.6
25/12:00am 17.4 17.0 16.3 93 0.7 S 13 19 7 10 1019.9 1019.9 4.6
 
Date/Time
EST
Temp
°C
App
Temp
°C
Dew
Point
°C
Rel
Hum
%
Delta-T
°C
Wind Press
QNH
hPa
Press
MSL
hPa
Rain since
9am
mm
Dir  Spd
km/h
Gust
km/h
Spd
kts
Gust
kts
24/11:30pm 17.5 17.2 16.4 93 0.7 SSW 13 19 7 10 1020.4 1020.4 4.6
24/11:00pm 17.9 18.0 16.6 92 0.8 SSW 11 19 6 10 1020.7 1020.7 4.4
24/10:30pm 18.2 18.0 16.7 91 0.9 SSE 13 20 7 11 1020.9 1020.9 4.4
24/10:00pm 18.6 19.6 16.9 90 1.0 SSE 7 13 4 7 1020.8 1020.8 4.4
24/09:30pm 18.4 18.7 16.9 91 0.9 SSE 11 19 6 10 1020.8 1020.8 4.4
24/09:00pm 18.2 17.2 16.7 91 0.9 SE 17 28 9 15 1020.9 1020.9 4.4
24/08:30pm 19.1 17.9 17.1 88 1.2 ESE 19 32 10 17 1021.0 1021.0 3.8
24/08:00pm 19.1 19.1 17.1 88 1.2 SSE 13 20 7 11 1020.6 1020.6 3.8
24/07:30pm 18.5 19.4 17.5 94 0.6 S 9 15 5 8 1020.6 1020.6 3.8
24/07:00pm 18.9 18.5 17.2 90 1.0 S 15 24 8 13 1020.3 1020.3 2.2
24/06:30pm 19.5 19.9 17.3 87 1.3 S 11 26 6 14 1019.8 1019.8 1.8
24/06:00pm 19.8 19.7 16.1 79 2.2 SSE 11 19 6 10 1019.5 1019.5 1.8
24/05:30pm 19.8 19.0 16.1 79 2.2 SE 15 28 8 15 1019.3 1019.3 1.8
24/05:00pm 20.2 18.9 17.2 83 1.8 ESE 20 41 11 22 1019.0 1019.0 1.8
24/04:30pm 20.2 19.7 16.8 81 2.1 SSE 15 26 8 14 1018.8 1018.8 1.8
24/04:00pm 21.9 22.0 16.4 71 3.3 SSE 11 22 6 12 1018.5 1018.5 1.8
24/03:30pm 22.2 21.4 16.2 69 3.6 SSE 15 28 8 15 1018.5 1018.5 1.6
24/03:00pm 22.4 21.6 16.2 68 3.7 SE 15 28 8 15 1018.5 1018.5 1.6
24/02:30pm 22.2 20.7 16.2 69 3.6 SE 19 30 10 16 1018.5 1018.5 1.6
24/02:00pm 21.9 21.1 16.0 69 3.5 SE 15 26 8 14 1018.5 1018.5 1.6
24/01:30pm 22.4 21.5 16.9 71 3.4 SE 17 24 9 13 1018.6 1018.6 1.6
24/01:00pm 20.3 20.7 18.1 87 1.4 S 13 17 7 9 1018.8 1018.8 1.6
24/12:30pm 19.9 19.7 17.7 87 1.4 S 15 22 8 12 1019.1 1019.1 1.6
24/12:00pm 20.6 20.1 17.0 80 2.2 SSE 15 24 8 13 1019.5 1019.5 0.8
24/11:30am 21.0 20.6 17.2 79 2.3 S 15 28 8 15 1019.8 1019.8 0.8
24/11:00am 19.6 19.6 17.2 86 1.5 S 13 24 7 13 1020.4 1020.4 0.8
24/10:30am 19.4 18.3 17.2 87 1.3 S 19 32 10 17 1020.7 1020.7 0.6
24/10:00am 19.0 18.3 17.3 90 1.0 S 17 28 9 15 1020.8 1020.8 0.6
24/09:30am 19.3 19.0 17.3 88 1.2 S 15 24 8 13 1021.0 1021.0 0.2
24/09:00am 18.8 17.9 16.8 88 1.2 S 17 24 9 13 1021.0 1021.0 3.2
24/08:30am 18.5 18.2 16.5 88 1.2 S 13 20 7 11 1020.7 1020.7 3.2
24/08:00am 18.2 17.8 16.2 88 1.2 S 13 20 7 11 1020.4 1020.4 3.2
24/07:30am 17.9 17.8 16.1 89 1.1 SSW 11 17 6 9 1020.3 1020.3 3.2
24/07:00am 17.7 17.2 16.0 90 1.0 SSW 13 19 7 10 1020.3 1020.3 3.2
24/06:30am 17.9 17.4 15.9 88 1.2 SSW 13 19 7 10 1020.0 1020.0 3.2
24/06:00am 17.8 17.7 16.0 89 1.1 SSW 11 17 6 9 1019.9 1019.9 3.2
24/05:30am 18.0 17.9 16.0 88 1.2 SSW 11 17 6 9 1019.5 1019.5 3.2
24/05:00am 19.9 19.2 15.3 75 2.7 SSE 13 24 7 13 1019.3 1019.3 3.2
24/04:30am 21.0 20.3 15.3 70 3.4 SE 13 22 7 12 1019.2 1019.2 3.2
24/04:00am 20.7 19.4 15.9 74 2.9 ESE 17 22 9 12 1019.1 1019.1 3.2
24/03:30am 20.5 19.8 16.3 77 2.5 SE 15 24 8 13 1019.3 1019.3 3.2
24/03:00am 17.8 18.3 16.5 92 0.8 SSW 9 15 5 8 1019.3 1019.3 3.2
24/02:30am 17.3 17.3 16.3 94 0.6 SSW 11 17 6 9 1019.5 1019.5 3.2
24/02:00am 17.3 16.9 16.3 94 0.6 SSW 13 19 7 10 1019.8 1019.8 3.2
24/01:30am 17.5 17.1 16.2 92 0.8 SSW 13 19 7 10 1019.9 1019.9 3.0
24/01:00am 17.6 18.0 16.3 92 0.8 SSW 9 13 5 7 1020.2 1020.2 3.0
24/12:30am 17.8 17.6 16.7 93 0.7 S 13 19 7 10 1020.2 1020.2 3.0
24/12:00am 17.2 16.9 16.4 95 0.5 S 13 19 7 10 1020.4 1020.4 3.0
 
Date/Time
EST
Temp
°C
App
Temp
°C
Dew
Point
°C
Rel
Hum
%
Delta-T
°C
Wind Press
QNH
hPa
Press
MSL
hPa
Rain since
9am
mm
Dir  Spd
km/h
Gust
km/h
Spd
kts
Gust
kts
23/11:30pm 17.3 16.3 16.5 95 0.5 S 17 24 9 13 1020.5 1020.5 2.6
23/11:00pm 17.3 17.8 16.5 95 0.5 S 9 15 5 8 1021.2 1021.2 2.6
23/10:30pm 17.4 17.1 16.4 94 0.6 S 13 24 7 13 1021.1 1021.1 1.0
23/10:00pm 17.6 17.7 16.5 93 0.7 S 11 19 6 10 1021.0 1021.0 0.2
23/09:30pm 17.7 17.8 16.4 92 0.8 SSW 11 20 6 11 1021.1 1021.1 0.2
23/09:00pm 18.0 18.1 16.5 91 0.9 SSW 11 17 6 9 1020.8 1020.8 0.2
23/08:30pm 18.1 17.9 16.6 91 0.9 S 13 17 7 9 1020.9 1020.9 0.2
23/08:00pm 18.2 18.0 16.7 91 0.9 SSW 13 20 7 11 1020.9 1020.9 0.2
23/07:30pm 18.3 18.1 16.6 90 1.0 S 13 19 7 10 1020.9 1020.9 0.2
23/07:00pm 18.3 19.2 16.5 89 1.1 SSW 7 13 4 7 1020.5 1020.5 0.2
23/06:30pm 18.8 19.0 16.8 88 1.2 SSW 11 19 6 10 1020.1 1020.1 0.2
23/06:00pm 18.5 18.3 16.8 90 1.0 SSW 13 17 7 9 1020.1 1020.1 0.2
23/05:30pm 18.7 18.6 16.9 89 1.1 S 13 19 7 10 1019.9 1019.9 0.2
23/05:00pm 19.4 18.8 16.6 84 1.7 S 15 22 8 12 1019.6 1019.6 0.2
23/04:30pm 20.0 19.8 16.6 81 2.1 S 13 20 7 11 1019.7 1019.7 0.2
23/04:00pm 21.8 21.2 15.6 68 3.7 SE 13 24 7 13 1019.1 1019.1 0.2
23/03:30pm 21.7 21.2 15.8 69 3.5 ESE 13 20 7 11 1019.0 1019.0 0.2
23/03:00pm 21.8 20.9 15.9 69 3.5 SE 15 26 8 14 1018.8 1018.8 0.2
23/02:30pm 21.9 21.1 16.2 70 3.4 ESE 15 22 8 12 1018.9 1018.9 0.2
23/02:00pm 22.0 21.1 15.8 68 3.7 ESE 15 28 8 15 1019.0 1019.0 0.2
23/01:30pm 22.0 21.5 15.8 68 3.7 SE 13 22 7 12 1018.9 1018.9 0.0
23/01:00pm 21.3 22.0 17.9 81 2.1 SSE 11 17 6 9 1019.1 1019.1 0.0
23/12:30pm 20.3 20.0 17.3 83 1.8 S 15 24 8 13 1019.3 1019.3 0.0
23/12:00pm 20.0 19.8 17.6 86 1.5 S 15 26 8 14 1019.9 1019.9 0.0
23/11:30am 19.7 19.1 17.5 87 1.3 S 17 26 9 14 1020.7 1020.7 0.0
23/11:00am 19.3 18.6 17.3 88 1.2 S 17 26 9 14 1020.7 1020.7 0.0
23/10:30am 19.7 19.2 16.9 84 1.7 S 15 22 8 12 1021.2 1021.2 0.0
23/10:00am 19.5 18.5 16.7 84 1.7 S 17 26 9 14 1021.2 1021.2 0.0
23/09:30am 18.7 17.6 16.3 86 1.4 S 17 24 9 13 1021.4 1021.4 0.0
23/09:00am 18.1 16.9 16.1 88 1.2 S 17 32 9 17 1021.4 1021.4 38.8
23/08:30am 17.6 16.4 16.1 91 0.9 S 17 22 9 12 1021.1 1021.1 38.8
23/08:00am 17.3 16.0 15.8 91 0.9 S 17 26 9 14 1020.9 1020.9 38.8
23/07:30am 17.3 16.0 15.8 91 0.9 S 17 24 9 13 1020.6 1020.6 38.8
23/07:00am 17.0 15.3 15.7 92 0.8 S 19 26 10 14 1020.4 1020.4 38.8
23/06:30am 16.8 15.8 15.7 93 0.6 S 15 24 8 13 1020.2 1020.2 38.8
23/06:00am 16.7 16.1 15.6 93 0.6 S 13 19 7 10 1019.7 1019.7 38.8
23/05:30am 16.8 15.1 15.7 93 0.6 S 19 26 10 14 1019.5 1019.5 37.2
23/05:00am 16.8 15.5 15.7 93 0.6 S 17 22 9 12 1019.0 1019.0 36.8
23/04:30am 16.6 16.0 15.6 94 0.6 SSE 13 20 7 11 1018.8 1018.8 36.8
23/04:00am 16.5 16.2 15.5 94 0.6 SSE 11 20 6 11 1018.8 1018.8 36.8
23/03:30am 16.7 15.7 15.7 94 0.6 S 15 22 8 12 1018.9 1018.9 36.4
23/03:00am 16.7 15.8 15.9 95 0.5 S 15 26 8 14 1018.7 1018.7 35.8
23/02:30am 16.5 15.6 15.9 96 0.4 S 15 20 8 11 1018.6 1018.6 35.4
23/02:00am 16.6 15.6 15.6 94 0.6 S 15 24 8 13 1018.7 1018.7 33.6
23/01:30am 16.7 15.2 15.4 92 0.8 S 17 24 9 13 1018.7 1018.7 33.6
23/01:00am 17.0 15.3 15.7 92 0.8 S 19 32 10 17 1019.0 1019.0 33.6
23/12:30am 17.2 15.4 16.1 93 0.7 S 20 28 11 15 1019.1 1019.1 33.6
23/12:00am 17.1 16.3 16.1 94 0.6 S 15 20 8 11 1019.0 1019.0 33.6
 
Date/Time
EST
Temp
°C
App
Temp
°C
Dew
Point
°C
Rel
Hum
%
Delta-T
°C
Wind Press
QNH
hPa
Press
MSL
hPa
Rain since
9am
mm
Dir  Spd
km/h
Gust
km/h
Spd
kts
Gust
kts
22/11:30pm 17.0 16.9 16.0 94 0.6 SSE 11 17 6 9 1019.4 1019.4 32.6
22/11:00pm 17.4 16.2 16.1 92 0.8 S 17 30 9 16 1019.3 1019.3 32.2
22/10:30pm 17.3 16.2 16.3 94 0.6 S 17 28 9 15 1019.4 1019.4 32.2
22/10:00pm 17.3 16.2 16.3 94 0.6 S 17 26 9 14 1019.8 1019.8 32.2
22/09:30pm 17.5 16.1 16.5 94 0.6 S 19 28 10 15 1019.8 1019.8 32.0
22/09:00pm 17.4 15.8 16.4 94 0.6 S 20 30 11 16 1019.7 1019.7 32.0
22/08:30pm 17.5 16.3 16.0 91 0.9 S 17 26 9 14 1019.8 1019.8 31.4
22/08:00pm 17.5 15.8 15.8 90 1.0 S 19 28 10 15 1019.5 1019.5 31.4
22/07:30pm 17.7 17.0 16.4 92 0.8 S 15 22 8 12 1019.3 1019.3 31.4
22/07:00pm 17.5 17.2 16.4 93 0.7 S 13 20 7 11 1018.9 1018.9 31.4
22/06:30pm 17.4 17.1 16.4 94 0.6 S 13 20 7 11 1018.4 1018.4 30.6
22/06:00pm 17.1 16.7 16.1 94 0.6 S 13 17 7 9 1018.1 1018.1 30.6
22/05:30pm 17.1 18.0 16.1 94 0.6 SE 6 9 3 5 1018.1 1018.1 30.6
22/05:00pm 17.4 15.9 16.4 94 0.6 SSE 19 24 10 13 1018.2 1018.2 30.2
22/04:30pm 17.4 15.8 15.9 91 0.9 SSE 19 35 10 19 1018.2 1018.2 29.2
22/04:00pm 19.1 17.7 15.6 80 2.1 SSE 17 30 9 16 1017.5 1017.5 28.0
22/03:30pm 18.5 17.3 16.1 86 1.4 SSE 17 26 9 14 1017.6 1017.6 28.0
22/03:00pm 18.3 17.4 16.8 91 0.9 SSE 17 28 9 15 1017.6 1017.6 28.0
22/02:30pm 18.7 17.6 17.2 91 0.9 SSE 19 33 10 18 1017.5 1017.5 27.4
22/02:00pm 18.9 18.7 17.7 93 0.7 SSE 15 24 8 13 1017.5 1017.5 27.2
22/01:30pm 18.7 17.8 17.7 94 0.6 SSE 19 32 10 17 1017.6 1017.6 27.2
22/01:00pm 18.6 18.5 17.9 96 0.4 SSE 15 26 8 14 1017.7 1017.7 27.0
22/12:30pm 18.4 17.9 17.9 97 0.3 SSE 17 24 9 13 1017.8 1017.8 24.0
22/12:00pm 18.6 17.6 17.9 96 0.4 SSE 20 37 11 20 1018.1 1018.1 18.2
22/11:30am 18.8 18.4 18.1 96 0.4 SSE 17 32 9 17 1018.5 1018.5 12.6
22/11:00am 18.7 18.6 17.9 95 0.5 SE 15 30 8 16 1018.8 1018.8 7.2
22/10:30am 20.0 20.8 19.0 94 0.6 S 13 20 7 11 1019.0 1019.0 0.8

Other formats

Comma delimited format used in spreadsheet applications
http://www.bom.gov.au/fwo/IDQ60801/IDQ60801.94570.axf

JavaScript Object Notation format (JSON) in row-major order
http://www.bom.gov.au/fwo/IDQ60801/IDQ60801.94570.json

Data quality

Most of these data are generated automatically and are frequently updated. Quality checks on data are not normally performed. It is possible for incorrect values to appear. Refer to information at About Latest Weather Observations and please check the disclaimer before using these data.